Time,TemperatureF,DewpointF,PressureIn,WindDirection,WindDirectionDegrees,WindSpeedMPH,WindSpeedGustMPH,Humidity,HourlyPrecipIn,Conditions,Clouds,dailyrainin,SoftwareType,DateUTC
2013-02-19 00:03:00,41.2,38.8,29.75,South,176,2.0,2.0,91,0.06,,---,0.00,VWS V14.00,2013-02-19 08:03:00,
2013-02-19 00:08:00,40.9,38.5,29.75,South,186,1.0,5.0,91,0.06,,---,0.00,VWS V14.00,2013-02-19 08:08:00,
2013-02-19 00:13:00,40.9,38.8,29.75,SSE,161,2.0,5.0,92,0.07,,---,0.01,VWS V14.00,2013-02-19 08:13:00,
2013-02-19 00:18:00,40.8,38.7,29.75,South,170,1.0,5.0,92,0.07,,---,0.01,VWS V14.00,2013-02-19 08:18:00,
2013-02-19 00:23:00,40.8,38.9,29.75,SSW,198,1.0,5.0,93,0.07,,---,0.01,VWS V14.00,2013-02-19 08:23:00,
2013-02-19 00:28:00,40.7,38.8,29.74,SSE,154,1.0,5.0,93,0.07,,---,0.01,VWS V14.00,2013-02-19 08:28:00,
2013-02-19 00:33:00,40.7,38.8,29.74,SSE,156,1.0,4.0,93,0.08,,---,0.02,VWS V14.00,2013-02-19 08:33:00,
2013-02-19 00:38:00,40.6,38.7,29.74,South,177,1.0,5.0,93,0.08,,---,0.02,VWS V14.00,2013-02-19 08:38:00,
2013-02-19 00:43:00,40.6,39.0,29.74,South,170,2.0,5.0,94,0.08,,---,0.02,VWS V14.00,2013-02-19 08:43:00,
2013-02-19 00:48:00,40.6,39.0,29.74,SSE,158,1.0,5.0,94,0.08,,---,0.02,VWS V14.00,2013-02-19 08:48:00,
2013-02-19 00:53:00,40.6,38.7,29.73,SSE,154,1.0,5.0,93,0.08,,---,0.02,VWS V14.00,2013-02-19 08:53:00,
2013-02-19 00:58:00,40.5,38.6,29.73,South,174,0.0,5.0,93,0.08,,---,0.02,VWS V14.00,2013-02-19 08:58:00,
2013-02-19 01:03:00,40.5,38.9,29.73,SE,127,0.0,0.0,94,0.02,,---,0.02,VWS V14.00,2013-02-19 09:03:00,
2013-02-19 01:08:00,40.4,38.8,29.73,ESE,118,0.0,0.0,94,0.02,,---,0.02,VWS V14.00,2013-02-19 09:08:00,
2013-02-19 01:13:00,40.3,38.7,29.73,ESE,118,0.0,0.0,94,0.02,,---,0.02,VWS V14.00,2013-02-19 09:13:00,
2013-02-19 01:18:00,40.2,38.6,29.73,South,184,0.0,2.0,94,0.02,,---,0.02,VWS V14.00,2013-02-19 09:18:00,
2013-02-19 01:23:00,40.2,38.6,29.72,SSE,151,0.0,2.0,94,0.02,,---,0.02,VWS V14.00,2013-02-19 09:23:00,
2013-02-19 01:28:00,40.1,38.5,29.72,SSE,151,0.0,2.0,94,0.02,,---,0.02,VWS V14.00,2013-02-19 09:28:00,
2013-02-19 01:33:00,40.1,38.5,29.72,SSE,148,0.0,0.0,94,0.00,,---,0.02,VWS V14.00,2013-02-19 09:33:00,
2013-02-19 01:38:00,40.1,38.8,29.72,SSE,148,0.0,0.0,95,0.00,,---,0.02,VWS V14.00,2013-02-19 09:38:00,
2013-02-19 01:43:00,40.0,38.4,29.72,SSW,208,0.0,4.0,94,0.01,,---,0.03,VWS V14.00,2013-02-19 09:43:00,
2013-02-19 01:48:00,40.1,38.8,29.72,SSW,205,0.0,4.0,95,0.01,,---,0.03,VWS V14.00,2013-02-19 09:48:00,
2013-02-19 01:53:00,40.1,38.8,29.72,South,177,0.0,4.0,95,0.01,,---,0.03,VWS V14.00,2013-02-19 09:53:00,
2013-02-19 01:58:00,40.0,38.7,29.72,South,175,1.0,4.0,95,0.01,,---,0.03,VWS V14.00,2013-02-19 09:58:00,
2013-02-19 02:03:00,40.0,38.7,29.72,South,174,0.0,0.0,95,0.01,,---,0.03,VWS V14.00,2013-02-19 10:03:00,
2013-02-19 02:08:00,40.0,38.7,29.72,South,174,0.0,0.0,95,0.01,,---,0.03,VWS V14.00,2013-02-19 10:08:00,
2013-02-19 02:13:00,40.1,38.8,29.72,South,174,0.0,1.0,95,0.01,,---,0.03,VWS V14.00,2013-02-19 10:13:00,
2013-02-19 02:18:00,40.2,38.9,29.72,South,174,0.0,1.0,95,0.01,,---,0.03,VWS V14.00,2013-02-19 10:18:00,
2013-02-19 02:23:00,40.2,38.9,29.71,South,176,0.0,2.0,95,0.01,,---,0.03,VWS V14.00,2013-02-19 10:23:00,
2013-02-19 02:28:00,40.3,39.0,29.71,South,177,1.0,2.0,95,0.01,,---,0.03,VWS V14.00,2013-02-19 10:28:00,
2013-02-19 02:33:00,40.2,38.9,29.71,SSW,204,1.0,1.0,95,0.01,,---,0.03,VWS V14.00,2013-02-19 10:33:00,
2013-02-19 02:38:00,40.2,38.9,29.71,SSW,204,0.0,1.0,95,0.01,,---,0.03,VWS V14.00,2013-02-19 10:38:00,
2013-02-19 02:43:00,40.2,38.9,29.71,SSW,204,0.0,1.0,95,0.01,,---,0.03,VWS V14.00,2013-02-19 10:43:00,
2013-02-19 02:48:00,40.2,38.9,29.71,SSW,196,0.0,1.0,95,0.01,,---,0.03,VWS V14.00,2013-02-19 10:48:00,
2013-02-19 02:53:00,40.2,38.9,29.71,SSW,192,0.0,1.0,95,0.01,,---,0.03,VWS V14.00,2013-02-19 10:53:00,
2013-02-19 02:58:00,40.2,38.9,29.71,ESE,109,0.0,2.0,95,0.01,,---,0.03,VWS V14.00,2013-02-19 10:58:00,
2013-02-19 03:03:00,40.2,38.9,29.70,SSE,159,0.0,2.0,95,0.00,,---,0.03,VWS V14.00,2013-02-19 11:03:00,
2013-02-19 03:08:00,40.1,38.8,29.70,SSE,154,0.0,2.0,95,0.00,,---,0.03,VWS V14.00,2013-02-19 11:08:00,
2013-02-19 03:13:00,40.1,38.8,29.70,SSE,154,0.0,2.0,95,0.00,,---,0.03,VWS V14.00,2013-02-19 11:13:00,
2013-02-19 03:18:00,40.0,38.7,29.70,SSE,154,0.0,2.0,95,0.00,,---,0.03,VWS V14.00,2013-02-19 11:18:00,
2013-02-19 03:23:00,39.9,38.6,29.70,SSE,154,0.0,2.0,95,0.00,,---,0.03,VWS V14.00,2013-02-19 11:23:00,
2013-02-19 03:28:00,39.7,38.4,29.70,SE,136,0.0,2.0,95,0.00,,---,0.03,VWS V14.00,2013-02-19 11:28:00,
2013-02-19 03:33:00,39.5,38.2,29.70,SE,133,0.0,1.0,95,0.00,,---,0.03,VWS V14.00,2013-02-19 11:33:00,
2013-02-19 03:38:00,39.1,37.8,29.69,SE,133,0.0,1.0,95,0.00,,---,0.03,VWS V14.00,2013-02-19 11:38:00,
2013-02-19 03:43:00,38.8,37.5,29.69,SE,133,0.0,1.0,95,0.00,,---,0.03,VWS V14.00,2013-02-19 11:43:00,
2013-02-19 03:48:00,38.5,37.2,29.69,WNW,302,0.0,2.0,95,0.00,,---,0.03,VWS V14.00,2013-02-19 11:48:00,
2013-02-19 03:53:00,38.2,36.9,29.69,NW,311,0.0,2.0,95,0.00,,---,0.03,VWS V14.00,2013-02-19 11:53:00,
2013-02-19 03:58:00,38.0,36.7,29.69,NW,311,0.0,2.0,95,0.00,,---,0.03,VWS V14.00,2013-02-19 11:58:00,
2013-02-19 04:04:00,37.8,36.8,29.69,NW,311,0.0,0.0,96,0.00,,---,0.03,VWS V14.00,2013-02-19 12:04:00,
2013-02-19 04:09:00,37.7,36.7,29.68,NW,311,0.0,0.0,96,0.01,,---,0.04,VWS V14.00,2013-02-19 12:09:00,
2013-02-19 04:14:00,37.5,36.5,29.68,NW,311,0.0,0.0,96,0.01,,---,0.04,VWS V14.00,2013-02-19 12:14:00,
2013-02-19 04:19:00,37.4,36.4,29.68,NW,311,0.0,1.0,96,0.01,,---,0.04,VWS V14.00,2013-02-19 12:19:00,
2013-02-19 04:24:00,37.3,36.3,29.68,NW,314,0.0,1.0,96,0.01,,---,0.04,VWS V14.00,2013-02-19 12:24:00,
2013-02-19 04:29:00,37.0,36.0,29.68,NW,314,0.0,1.0,96,0.01,,---,0.04,VWS V14.00,2013-02-19 12:29:00,
2013-02-19 04:34:00,36.9,35.9,29.68,NW,314,0.0,0.0,96,0.01,,---,0.04,VWS V14.00,2013-02-19 12:34:00,
2013-02-19 04:39:00,36.8,35.8,29.68,NW,314,0.0,0.0,96,0.01,,---,0.04,VWS V14.00,2013-02-19 12:39:00,
2013-02-19 04:44:00,36.7,35.7,29.68,NW,314,0.0,0.0,96,0.01,,---,0.04,VWS V14.00,2013-02-19 12:44:00,
2013-02-19 04:49:00,36.6,35.6,29.68,NW,314,0.0,0.0,96,0.01,,---,0.04,VWS V14.00,2013-02-19 12:49:00,
2013-02-19 04:54:00,36.6,35.6,29.68,NW,314,0.0,0.0,96,0.01,,---,0.04,VWS V14.00,2013-02-19 12:54:00,
2013-02-19 04:59:00,36.6,35.8,29.68,NW,314,0.0,0.0,97,0.01,,---,0.04,VWS V14.00,2013-02-19 12:59:00,
2013-02-19 05:04:00,36.6,35.8,29.68,NW,314,0.0,0.0,97,0.01,,---,0.04,VWS V14.00,2013-02-19 13:04:00,
2013-02-19 05:09:00,36.7,35.9,29.68,NW,325,0.0,2.0,97,0.01,,---,0.04,VWS V14.00,2013-02-19 13:09:00,
2013-02-19 05:14:00,36.6,35.8,29.68,NNW,329,0.0,2.0,97,0.01,,---,0.04,VWS V14.00,2013-02-19 13:14:00,
2013-02-19 05:19:00,36.5,35.7,29.68,NW,313,0.0,2.0,97,0.01,,---,0.04,VWS V14.00,2013-02-19 13:19:00,
2013-02-19 05:24:00,36.5,35.7,29.68,NW,313,0.0,2.0,97,0.01,,---,0.04,VWS V14.00,2013-02-19 13:24:00,
2013-02-19 05:29:00,36.6,35.8,29.68,NW,319,1.0,2.0,97,0.01,,---,0.04,VWS V14.00,2013-02-19 13:29:00,
2013-02-19 05:34:00,36.5,35.7,29.68,NW,319,0.0,0.0,97,0.00,,---,0.04,VWS V14.00,2013-02-19 13:34:00,
2013-02-19 05:39:00,36.6,35.8,29.68,NW,319,0.0,0.0,97,0.00,,---,0.04,VWS V14.00,2013-02-19 13:39:00,
2013-02-19 05:44:00,36.6,35.8,29.68,NW,319,0.0,0.0,97,0.00,,---,0.04,VWS V14.00,2013-02-19 13:44:00,
2013-02-19 05:49:00,36.7,35.9,29.68,NW,319,0.0,1.0,97,0.00,,---,0.04,VWS V14.00,2013-02-19 13:49:00,
2013-02-19 05:54:00,36.8,36.0,29.68,NW,319,0.0,1.0,97,0.00,,---,0.04,VWS V14.00,2013-02-19 13:54:00,
2013-02-19 05:59:00,36.7,35.9,29.69,NW,319,0.0,1.0,97,0.00,,---,0.04,VWS V14.00,2013-02-19 13:59:00,
2013-02-19 06:04:00,36.6,35.8,29.69,NW,319,0.0,0.0,97,0.00,,---,0.04,VWS V14.00,2013-02-19 14:04:00,
2013-02-19 06:09:00,36.5,35.7,29.69,NW,319,0.0,0.0,97,0.00,,---,0.04,VWS V14.00,2013-02-19 14:09:00,
2013-02-19 06:14:00,36.4,35.4,29.69,NW,319,0.0,0.0,96,0.00,,---,0.04,VWS V14.00,2013-02-19 14:14:00,
2013-02-19 06:19:00,36.3,35.5,29.68,NW,319,0.0,0.0,97,0.00,,---,0.04,VWS V14.00,2013-02-19 14:19:00,
2013-02-19 06:24:00,36.3,35.5,29.68,NW,319,0.0,1.0,97,0.00,,---,0.04,VWS V14.00,2013-02-19 14:24:00,
2013-02-19 06:29:00,36.3,35.5,29.69,NW,319,0.0,1.0,97,0.00,,---,0.04,VWS V14.00,2013-02-19 14:29:00,
2013-02-19 06:34:00,36.3,35.5,29.69,NW,319,0.0,0.0,97,0.00,,---,0.04,VWS V14.00,2013-02-19 14:34:00,
2013-02-19 06:39:00,36.4,35.6,29.69,NW,319,0.0,0.0,97,0.00,,---,0.04,VWS V14.00,2013-02-19 14:39:00,
2013-02-19 06:44:00,36.4,35.6,29.69,NW,319,0.0,0.0,97,0.00,,---,0.04,VWS V14.00,2013-02-19 14:44:00,
2013-02-19 06:49:00,36.4,35.6,29.69,NW,319,0.0,0.0,97,0.00,,---,0.04,VWS V14.00,2013-02-19 14:49:00,
2013-02-19 06:54:00,36.5,35.7,29.69,NW,319,0.0,0.0,97,0.00,,---,0.04,VWS V14.00,2013-02-19 14:54:00,
2013-02-19 06:59:00,36.6,35.8,29.70,NW,319,0.0,0.0,97,0.00,,---,0.04,VWS V14.00,2013-02-19 14:59:00,
2013-02-19 07:04:00,36.7,35.9,29.70,NW,319,0.0,0.0,97,0.00,,---,0.04,VWS V14.00,2013-02-19 15:04:00,
2013-02-19 07:09:00,36.7,35.9,29.70,NW,319,0.0,0.0,97,0.00,,---,0.04,VWS V14.00,2013-02-19 15:09:00,
2013-02-19 07:14:00,36.8,36.0,29.70,NW,319,0.0,0.0,97,0.00,,---,0.04,VWS V14.00,2013-02-19 15:14:00,
2013-02-19 07:19:00,36.8,36.0,29.70,NW,319,0.0,0.0,97,0.00,,---,0.04,VWS V14.00,2013-02-19 15:19:00,
2013-02-19 07:25:00,36.9,36.1,29.70,NW,319,0.0,0.0,97,0.00,,---,0.04,VWS V14.00,2013-02-19 15:25:00,
2013-02-19 07:30:00,37.1,36.3,29.71,NW,319,0.0,0.0,97,0.00,,---,0.04,VWS V14.00,2013-02-19 15:30:00,
2013-02-19 07:35:00,37.2,36.4,29.71,NW,319,0.0,0.0,97,0.00,,---,0.04,VWS V14.00,2013-02-19 15:35:00,
2013-02-19 07:40:00,37.2,36.4,29.71,NW,319,0.0,1.0,97,0.00,,---,0.04,VWS V14.00,2013-02-19 15:40:00,
2013-02-19 07:45:00,37.2,36.4,29.71,NW,319,0.0,1.0,97,0.00,,---,0.04,VWS V14.00,2013-02-19 15:45:00,
2013-02-19 07:50:00,37.3,36.5,29.71,NW,319,0.0,1.0,97,0.00,,---,0.04,VWS V14.00,2013-02-19 15:50:00,
2013-02-19 07:55:00,37.4,36.6,29.72,NW,319,0.0,1.0,97,0.00,,---,0.04,VWS V14.00,2013-02-19 15:55:00,
2013-02-19 08:00:00,37.5,36.7,29.72,NW,319,0.0,1.0,97,0.00,,---,0.04,VWS V14.00,2013-02-19 16:00:00,
2013-02-19 08:05:00,37.7,36.9,29.72,NW,319,0.0,0.0,97,0.00,,---,0.04,VWS V14.00,2013-02-19 16:05:00,
2013-02-19 08:10:00,37.8,37.0,29.72,NW,319,0.0,0.0,97,0.00,,---,0.04,VWS V14.00,2013-02-19 16:10:00,
2013-02-19 08:15:00,37.8,37.0,29.72,NW,319,0.0,1.0,97,0.00,,---,0.04,VWS V14.00,2013-02-19 16:15:00,
2013-02-19 08:20:00,37.9,37.1,29.73,NW,319,0.0,1.0,97,0.00,,---,0.04,VWS V14.00,2013-02-19 16:20:00,
2013-02-19 08:25:00,38.0,37.2,29.73,NW,319,0.0,1.0,97,0.00,,---,0.04,VWS V14.00,2013-02-19 16:25:00,
2013-02-19 08:30:00,38.1,37.3,29.73,NW,319,0.0,1.0,97,0.00,,---,0.04,VWS V14.00,2013-02-19 16:30:00,
2013-02-19 08:35:00,38.2,37.4,29.73,NW,319,0.0,0.0,97,0.00,,---,0.04,VWS V14.00,2013-02-19 16:35:00,
2013-02-19 08:40:00,38.3,37.5,29.73,NW,319,0.0,0.0,97,0.00,,---,0.04,VWS V14.00,2013-02-19 16:40:00,
2013-02-19 08:45:00,38.4,37.6,29.73,NW,320,1.0,2.0,97,0.00,,---,0.04,VWS V14.00,2013-02-19 16:45:00,
2013-02-19 08:50:00,38.5,37.7,29.74,NW,315,1.0,3.0,97,0.00,,---,0.04,VWS V14.00,2013-02-19 16:50:00,
2013-02-19 08:55:00,38.6,37.8,29.74,NW,315,0.0,3.0,97,0.00,,---,0.04,VWS V14.00,2013-02-19 16:55:00,
2013-02-19 09:00:00,38.8,38.0,29.74,NW,314,0.0,3.0,97,0.00,,---,0.04,VWS V14.00,2013-02-19 17:00:00,
2013-02-19 09:05:00,38.9,38.1,29.74,NNW,331,0.0,2.0,97,0.00,,---,0.04,VWS V14.00,2013-02-19 17:05:00,
2013-02-19 09:10:00,39.1,38.3,29.74,NNW,328,0.0,2.0,97,0.00,,---,0.04,VWS V14.00,2013-02-19 17:10:00,
2013-02-19 09:15:00,39.5,38.7,29.74,NNW,328,0.0,2.0,97,0.00,,---,0.04,VWS V14.00,2013-02-19 17:15:00,
2013-02-19 09:20:00,39.7,38.9,29.74,NNW,340,2.0,3.0,97,0.00,,---,0.04,VWS V14.00,2013-02-19 17:20:00,
2013-02-19 09:25:00,39.7,38.4,29.74,NNW,344,0.0,3.0,95,0.00,,---,0.04,VWS V14.00,2013-02-19 17:25:00,
2013-02-19 09:30:00,39.8,38.5,29.74,NE,36,1.0,3.0,95,0.00,,---,0.04,VWS V14.00,2013-02-19 17:30:00,
2013-02-19 09:35:00,40.1,38.8,29.74,NW,326,0.0,2.0,95,0.00,,---,0.04,VWS V14.00,2013-02-19 17:35:00,
2013-02-19 09:40:00,40.4,39.1,29.74,NNE,31,1.0,2.0,95,0.00,,---,0.04,VWS V14.00,2013-02-19 17:40:00,
2013-02-19 09:45:00,40.6,39.0,29.74,NW,323,0.0,2.0,94,0.00,,---,0.04,VWS V14.00,2013-02-19 17:45:00,
2013-02-19 09:50:00,40.9,39.3,29.74,NW,317,0.0,2.0,94,0.00,,---,0.04,VWS V14.00,2013-02-19 17:50:00,
2013-02-19 09:55:00,41.1,39.5,29.75,NNW,346,2.0,2.0,94,0.00,,---,0.04,VWS V14.00,2013-02-19 17:55:00,
2013-02-19 10:00:00,41.3,39.4,29.75,NNW,347,1.0,2.0,93,0.00,,---,0.04,VWS V14.00,2013-02-19 18:00:00,
2013-02-19 10:05:00,41.5,39.6,29.75,NE,45,0.0,2.0,93,0.00,,---,0.04,VWS V14.00,2013-02-19 18:05:00,
2013-02-19 10:10:00,41.7,39.8,29.75,NNW,346,1.0,3.0,93,0.00,,---,0.04,VWS V14.00,2013-02-19 18:10:00,
2013-02-19 10:15:00,41.9,39.8,29.75,NNW,334,1.0,3.0,92,0.00,,---,0.04,VWS V14.00,2013-02-19 18:15:00,
2013-02-19 10:20:00,42.2,40.0,29.75,North,355,2.0,3.0,92,0.00,,---,0.04,VWS V14.00,2013-02-19 18:20:00,
2013-02-19 10:25:00,42.3,40.2,29.75,NNW,348,1.0,4.0,92,0.00,,---,0.04,VWS V14.00,2013-02-19 18:25:00,
2013-02-19 10:30:00,42.5,40.3,29.75,NNE,20,0.0,4.0,92,0.00,,---,0.04,VWS V14.00,2013-02-19 18:30:00,
2013-02-19 10:35:00,42.4,40.0,29.76,NNW,335,1.0,4.0,91,0.00,,---,0.04,VWS V14.00,2013-02-19 18:35:00,
2013-02-19 10:40:00,42.3,39.6,29.76,NNW,345,0.0,4.0,90,0.00,,---,0.04,VWS V14.00,2013-02-19 18:40:00,
2013-02-19 10:45:00,42.4,40.0,29.76,North,349,2.0,4.0,91,0.00,,---,0.04,VWS V14.00,2013-02-19 18:45:00,
2013-02-19 10:50:00,42.6,40.4,29.76,North,5,0.0,4.0,92,0.00,,---,0.04,VWS V14.00,2013-02-19 18:50:00,
2013-02-19 10:55:00,42.7,40.3,29.76,NNW,336,1.0,4.0,91,0.00,,---,0.04,VWS V14.00,2013-02-19 18:55:00,
2013-02-19 11:00:00,42.7,40.3,29.76,NNW,348,1.0,4.0,91,0.00,,---,0.04,VWS V14.00,2013-02-19 19:00:00,
2013-02-19 11:05:00,42.9,40.5,29.77,North,355,2.0,3.0,91,0.00,,---,0.04,VWS V14.00,2013-02-19 19:05:00,
2013-02-19 11:10:00,43.2,40.5,29.77,NNW,347,2.0,3.0,90,0.00,,---,0.04,VWS V14.00,2013-02-19 19:10:00,
2013-02-19 11:15:00,43.4,40.7,29.77,North,355,1.0,5.0,90,0.00,,---,0.04,VWS V14.00,2013-02-19 19:15:00,
2013-02-19 11:20:00,43.5,40.8,29.77,NNW,330,1.0,5.0,90,0.00,,---,0.04,VWS V14.00,2013-02-19 19:20:00,
2013-02-19 11:25:00,43.7,40.4,29.77,NNW,344,2.0,5.0,88,0.00,,---,0.04,VWS V14.00,2013-02-19 19:25:00,
2013-02-19 11:30:00,44.0,40.7,29.77,NNE,19,1.0,5.0,88,0.00,,---,0.04,VWS V14.00,2013-02-19 19:30:00,
2013-02-19 11:35:00,44.4,41.1,29.77,NW,323,2.0,5.0,88,0.00,,---,0.04,VWS V14.00,2013-02-19 19:35:00,
2013-02-19 11:40:00,44.6,40.7,29.77,NNE,12,0.0,5.0,86,0.00,,---,0.04,VWS V14.00,2013-02-19 19:40:00,
2013-02-19 11:46:00,45.0,41.1,29.77,NNW,344,0.0,5.0,86,0.00,,---,0.04,VWS V14.00,2013-02-19 19:46:00,
2013-02-19 11:51:00,45.1,40.9,29.77,ENE,61,1.0,5.0,85,0.00,,---,0.04,VWS V14.00,2013-02-19 19:51:00,
2013-02-19 11:56:00,45.6,41.0,29.77,ENE,65,1.0,5.0,84,0.00,,---,0.04,VWS V14.00,2013-02-19 19:56:00,
2013-02-19 12:01:00,45.8,41.5,29.77,NNW,327,1.0,5.0,85,0.00,,---,0.04,VWS V14.00,2013-02-19 20:01:00,
2013-02-19 12:06:00,45.7,41.2,29.77,North,360,0.0,3.0,84,0.00,,---,0.04,VWS V14.00,2013-02-19 20:06:00,
2013-02-19 12:11:00,45.8,41.5,29.77,NE,48,3.0,3.0,85,0.00,,---,0.04,VWS V14.00,2013-02-19 20:11:00,
2013-02-19 12:16:00,46.5,41.9,29.77,NE,35,1.0,4.0,84,0.00,,---,0.04,VWS V14.00,2013-02-19 20:16:00,
2013-02-19 12:21:00,46.9,41.7,29.77,North,360,1.0,4.0,82,0.00,,---,0.04,VWS V14.00,2013-02-19 20:21:00,
2013-02-19 12:26:00,47.0,41.8,29.77,NNW,338,1.0,5.0,82,0.00,,---,0.04,VWS V14.00,2013-02-19 20:26:00,
2013-02-19 12:31:00,47.1,40.9,29.78,ENE,57,1.0,5.0,79,0.00,,---,0.04,VWS V14.00,2013-02-19 20:31:00,
2013-02-19 12:36:00,47.4,41.9,29.77,NNW,348,0.0,2.0,81,0.00,,---,0.04,VWS V14.00,2013-02-19 20:36:00,
2013-02-19 12:41:00,47.8,42.3,29.78,NNW,334,2.0,6.0,81,0.00,,---,0.04,VWS V14.00,2013-02-19 20:41:00,
2013-02-19 12:46:00,48.2,42.0,29.78,SSW,208,0.0,6.0,79,0.00,,---,0.04,VWS V14.00,2013-02-19 20:46:00,
2013-02-19 12:51:00,48.1,41.9,29.78,NNE,21,0.0,6.0,79,0.00,,---,0.04,VWS V14.00,2013-02-19 20:51:00,
2013-02-19 12:56:00,48.1,41.2,29.78,NE,40,1.0,6.0,77,0.00,,---,0.04,VWS V14.00,2013-02-19 20:56:00,
2013-02-19 13:01:00,48.2,42.0,29.78,NE,47,0.0,6.0,79,0.00,,---,0.04,VWS V14.00,2013-02-19 21:01:00,
2013-02-19 13:06:00,48.5,41.3,29.78,North,5,2.0,4.0,76,0.00,,---,0.04,VWS V14.00,2013-02-19 21:06:00,
2013-02-19 13:11:00,48.8,42.3,29.78,North,355,2.0,4.0,78,0.00,,---,0.04,VWS V14.00,2013-02-19 21:11:00,
2013-02-19 13:16:00,49.2,41.3,29.78,North,9,1.0,5.0,74,0.00,,---,0.04,VWS V14.00,2013-02-19 21:16:00,
2013-02-19 13:21:00,49.9,42.7,29.78,NNW,327,2.0,5.0,76,0.00,,---,0.04,VWS V14.00,2013-02-19 21:21:00,
2013-02-19 13:26:00,50.4,41.7,29.78,NW,319,2.0,5.0,72,0.00,,---,0.04,VWS V14.00,2013-02-19 21:26:00,
2013-02-19 13:31:00,50.8,42.1,29.78,West,280,1.0,5.0,72,0.00,,---,0.04,VWS V14.00,2013-02-19 21:31:00,
2013-02-19 13:36:00,51.3,42.6,29.78,NNW,328,1.0,7.0,72,0.00,,---,0.04,VWS V14.00,2013-02-19 21:36:00,
2013-02-19 13:41:00,51.7,42.2,29.79,NNE,32,1.0,7.0,70,0.00,,---,0.04,VWS V14.00,2013-02-19 21:41:00,
2013-02-19 13:46:00,51.2,41.8,29.79,NNW,331,2.0,7.0,70,0.00,,---,0.04,VWS V14.00,2013-02-19 21:46:00,
2013-02-19 13:51:00,50.9,41.8,29.79,North,9,0.0,7.0,71,0.00,,---,0.04,VWS V14.00,2013-02-19 21:51:00,
2013-02-19 13:56:00,50.8,41.0,29.79,North,360,1.0,7.0,69,0.00,,---,0.04,VWS V14.00,2013-02-19 21:56:00,
2013-02-19 14:01:00,51.0,40.4,29.79,North,360,3.0,7.0,67,0.00,,---,0.04,VWS V14.00,2013-02-19 22:01:00,
2013-02-19 14:06:00,50.8,40.6,29.79,NNE,15,2.0,7.0,68,0.00,,---,0.04,VWS V14.00,2013-02-19 22:06:00,
2013-02-19 14:11:00,50.5,40.0,29.79,NNW,348,2.0,9.0,67,0.00,,---,0.04,VWS V14.00,2013-02-19 22:11:00,
2013-02-19 14:16:00,50.8,41.0,29.79,North,350,3.0,9.0,69,0.00,,---,0.04,VWS V14.00,2013-02-19 22:16:00,
2013-02-19 14:21:00,51.2,41.4,29.79,NW,315,3.0,9.0,69,0.00,,---,0.04,VWS V14.00,2013-02-19 22:21:00,
2013-02-19 14:26:00,51.1,40.5,29.79,NNW,343,2.0,9.0,67,0.00,,---,0.04,VWS V14.00,2013-02-19 22:26:00,
2013-02-19 14:31:00,51.3,41.1,29.79,NNE,26,2.0,9.0,68,0.00,,---,0.04,VWS V14.00,2013-02-19 22:31:00,
2013-02-19 14:36:00,51.5,40.1,29.79,NNW,336,4.0,5.0,65,0.00,,---,0.04,VWS V14.00,2013-02-19 22:36:00,
2013-02-19 14:41:00,51.8,40.0,29.80,North,360,2.0,6.0,64,0.00,,---,0.04,VWS V14.00,2013-02-19 22:41:00,
2013-02-19 14:46:00,51.9,40.1,29.79,NNE,25,0.0,6.0,64,0.00,,---,0.04,VWS V14.00,2013-02-19 22:46:00,
2013-02-19 14:51:00,52.4,40.2,29.80,North,355,3.0,6.0,63,0.00,,---,0.04,VWS V14.00,2013-02-19 22:51:00,
2013-02-19 14:56:00,52.6,39.5,29.80,ENE,58,2.0,6.0,61,0.00,,---,0.04,VWS V14.00,2013-02-19 22:56:00,
2013-02-19 15:01:00,52.9,39.8,29.80,NNW,329,2.0,6.0,61,0.00,,---,0.04,VWS V14.00,2013-02-19 23:01:00,
2013-02-19 15:06:00,53.2,40.1,29.80,North,350,3.0,6.0,61,0.00,,---,0.04,VWS V14.00,2013-02-19 23:06:00,
2013-02-19 15:11:00,52.6,40.0,29.80,NNW,344,2.0,7.0,62,0.00,,---,0.04,VWS V14.00,2013-02-19 23:11:00,
2013-02-19 15:16:00,51.7,39.1,29.81,NE,47,1.0,7.0,62,0.00,,---,0.04,VWS V14.00,2013-02-19 23:16:00,
2013-02-19 15:21:00,51.3,38.7,29.81,North,5,0.0,7.0,62,0.00,,---,0.04,VWS V14.00,2013-02-19 23:21:00,
2013-02-19 15:26:00,50.9,39.2,29.81,North,350,1.0,7.0,64,0.00,,---,0.04,VWS V14.00,2013-02-19 23:26:00,
2013-02-19 15:31:00,50.6,39.3,29.81,North,5,0.0,7.0,65,0.00,,---,0.04,VWS V14.00,2013-02-19 23:31:00,
2013-02-19 15:36:00,50.4,38.7,29.81,NNW,346,0.0,3.0,64,0.00,,---,0.04,VWS V14.00,2013-02-19 23:36:00,
2013-02-19 15:42:00,50.3,39.4,29.81,NW,307,0.0,3.0,66,0.00,,---,0.04,VWS V14.00,2013-02-19 23:42:00,
2013-02-19 15:47:00,50.3,40.2,29.82,NW,321,1.0,3.0,68,0.00,,---,0.04,VWS V14.00,2013-02-19 23:47:00,
2013-02-19 15:52:00,50.3,39.8,29.82,NW,306,0.0,3.0,67,0.00,,---,0.04,VWS V14.00,2013-02-19 23:52:00,
2013-02-19 15:57:00,50.2,39.3,29.82,NNW,333,1.0,4.0,66,0.00,,---,0.04,VWS V14.00,2013-02-19 23:57:00,
2013-02-19 16:02:00,50.1,38.8,29.82,NW,306,0.0,5.0,65,0.00,,---,0.04,VWS V14.00,2013-02-20 00:02:00,
2013-02-19 16:07:00,50.1,39.2,29.82,NNW,327,0.0,3.0,66,0.00,,---,0.04,VWS V14.00,2013-02-20 00:07:00,
2013-02-19 16:12:00,49.9,40.2,29.82,NNW,338,1.0,4.0,69,0.00,,---,0.04,VWS V14.00,2013-02-20 00:12:00,
2013-02-19 16:17:00,49.6,39.9,29.83,NNE,29,1.0,4.0,69,0.00,,---,0.04,VWS V14.00,2013-02-20 00:17:00,
2013-02-19 16:22:00,49.0,40.0,29.83,NNW,346,0.0,4.0,71,0.00,,---,0.04,VWS V14.00,2013-02-20 00:22:00,
2013-02-19 16:27:00,48.6,40.0,29.83,North,5,3.0,5.0,72,0.00,,---,0.04,VWS V14.00,2013-02-20 00:27:00,
2013-02-19 16:32:00,48.3,40.1,29.83,NW,322,6.0,7.0,73,0.00,,---,0.04,VWS V14.00,2013-02-20 00:32:00,
2013-02-19 16:37:00,47.8,39.9,29.83,North,355,0.0,6.0,74,0.00,,---,0.04,VWS V14.00,2013-02-20 00:37:00,
2013-02-19 16:42:00,47.5,39.6,29.83,NW,324,3.0,6.0,74,0.00,,---,0.04,VWS V14.00,2013-02-20 00:42:00,
2013-02-19 16:47:00,47.4,40.2,29.84,NNE,17,2.0,6.0,76,0.00,,---,0.04,VWS V14.00,2013-02-20 00:47:00,
2013-02-19 16:52:00,47.3,40.1,29.84,North,5,0.0,6.0,76,0.00,,---,0.04,VWS V14.00,2013-02-20 00:52:00,
2013-02-19 16:57:00,47.2,40.4,29.84,NE,35,0.0,6.0,77,0.00,,---,0.04,VWS V14.00,2013-02-20 00:57:00,
2013-02-19 17:02:00,47.2,40.0,29.84,North,350,0.0,6.0,76,0.00,,---,0.04,VWS V14.00,2013-02-20 01:02:00,
2013-02-19 17:07:00,47.2,40.0,29.84,NNW,336,0.0,5.0,76,0.00,,---,0.04,VWS V14.00,2013-02-20 01:07:00,
2013-02-19 17:12:00,47.0,39.8,29.83,NNW,336,0.0,5.0,76,0.00,,---,0.04,VWS V14.00,2013-02-20 01:12:00,
2013-02-19 17:17:00,46.9,39.7,29.84,NNW,338,0.0,5.0,76,0.00,,---,0.04,VWS V14.00,2013-02-20 01:17:00,
2013-02-19 17:22:00,46.8,39.7,29.84,NNW,338,0.0,5.0,76,0.00,,---,0.04,VWS V14.00,2013-02-20 01:22:00,
2013-02-19 17:27:00,46.6,39.8,29.84,NNW,344,0.0,5.0,77,0.00,,---,0.04,VWS V14.00,2013-02-20 01:27:00,
2013-02-19 17:32:00,46.5,39.7,29.84,NNE,32,0.0,0.0,77,0.00,,---,0.04,VWS V14.00,2013-02-20 01:32:00,
2013-02-19 17:37:00,46.3,39.5,29.85,NNE,32,0.0,0.0,77,0.00,,---,0.04,VWS V14.00,2013-02-20 01:37:00,
2013-02-19 17:42:00,46.1,39.6,29.85,NNE,32,0.0,0.0,78,0.00,,---,0.04,VWS V14.00,2013-02-20 01:42:00,
2013-02-19 17:47:00,45.8,39.7,29.85,NNE,32,0.0,0.0,79,0.00,,---,0.04,VWS V14.00,2013-02-20 01:47:00,
2013-02-19 17:52:00,45.4,40.2,29.86,NE,43,2.0,2.0,82,0.00,,---,0.04,VWS V14.00,2013-02-20 01:52:00,
2013-02-19 17:57:00,45.1,39.6,29.86,NE,43,0.0,2.0,81,0.00,,---,0.04,VWS V14.00,2013-02-20 01:57:00,
2013-02-19 18:02:00,44.9,39.4,29.87,NE,43,0.0,0.0,81,0.00,,---,0.04,VWS V14.00,2013-02-20 02:02:00,
2013-02-19 18:07:00,44.9,39.8,29.87,NE,43,0.0,0.0,82,0.00,,---,0.04,VWS V14.00,2013-02-20 02:07:00,
2013-02-19 18:12:00,44.7,39.5,29.87,NE,43,0.0,0.0,82,0.00,,---,0.04,VWS V14.00,2013-02-20 02:12:00,
2013-02-19 18:17:00,44.7,39.9,29.88,NE,43,0.0,0.0,83,0.00,,---,0.04,VWS V14.00,2013-02-20 02:17:00,
2013-02-19 18:22:00,44.5,39.7,29.88,NE,43,0.0,0.0,83,0.00,,---,0.04,VWS V14.00,2013-02-20 02:22:00,
2013-02-19 18:27:00,44.5,39.7,29.88,NE,43,0.0,0.0,83,0.00,,---,0.04,VWS V14.00,2013-02-20 02:27:00,
2013-02-19 18:32:00,44.3,39.5,29.88,SW,225,1.0,2.0,83,0.00,,---,0.04,VWS V14.00,2013-02-20 02:32:00,
2013-02-19 18:37:00,44.4,38.9,29.89,West,280,0.0,2.0,81,0.00,,---,0.04,VWS V14.00,2013-02-20 02:37:00,
2013-02-19 18:42:00,44.4,38.9,29.89,West,281,0.0,2.0,81,0.00,,---,0.04,VWS V14.00,2013-02-20 02:42:00,
2013-02-19 18:47:00,44.3,38.5,29.89,NNW,341,1.0,2.0,80,0.00,,---,0.04,VWS V14.00,2013-02-20 02:47:00,
2013-02-19 18:52:00,44.1,38.0,29.90,NNW,344,0.0,2.0,79,0.00,,---,0.04,VWS V14.00,2013-02-20 02:52:00,
2013-02-19 18:57:00,44.0,38.9,29.90,NNW,344,0.0,2.0,82,0.00,,---,0.04,VWS V14.00,2013-02-20 02:57:00,
2013-02-19 19:02:00,43.8,38.4,29.91,NNW,344,0.0,0.0,81,0.00,,---,0.04,VWS V14.00,2013-02-20 03:02:00,
2013-02-19 19:07:00,43.7,38.9,29.91,NNW,344,0.0,0.0,83,0.00,,---,0.04,VWS V14.00,2013-02-20 03:07:00,
2013-02-19 19:12:00,43.6,38.8,29.91,NNW,344,0.0,0.0,83,0.00,,---,0.04,VWS V14.00,2013-02-20 03:12:00,
2013-02-19 19:17:00,43.4,38.6,29.91,NNW,344,0.0,0.0,83,0.00,,---,0.04,VWS V14.00,2013-02-20 03:17:00,
2013-02-19 19:22:00,43.2,38.4,29.91,NNW,344,0.0,0.0,83,0.00,,---,0.04,VWS V14.00,2013-02-20 03:22:00,
2013-02-19 19:27:00,43.0,38.2,29.91,NNW,344,0.0,0.0,83,0.00,,---,0.04,VWS V14.00,2013-02-20 03:27:00,
2013-02-19 19:33:00,42.7,37.9,29.91,NNW,344,0.0,0.0,83,0.00,,---,0.04,VWS V14.00,2013-02-20 03:33:00,
2013-02-19 19:38:00,42.5,37.7,29.91,NNW,344,0.0,0.0,83,0.00,,---,0.04,VWS V14.00,2013-02-20 03:38:00,
2013-02-19 19:43:00,42.4,37.9,29.91,NNW,344,0.0,0.0,84,0.00,,---,0.04,VWS V14.00,2013-02-20 03:43:00,
2013-02-19 19:48:00,42.2,37.7,29.92,NNW,344,0.0,0.0,84,0.00,,---,0.04,VWS V14.00,2013-02-20 03:48:00,
2013-02-19 19:53:00,42.0,37.8,29.92,NNW,340,0.0,1.0,85,0.00,,---,0.04,VWS V14.00,2013-02-20 03:53:00,
2013-02-19 19:58:00,41.9,37.7,29.92,NNW,340,0.0,1.0,85,0.00,,---,0.04,VWS V14.00,2013-02-20 03:58:00,
2013-02-19 20:03:00,41.7,37.5,29.92,NNW,340,0.0,0.0,85,0.00,,---,0.04,VWS V14.00,2013-02-20 04:03:00,
2013-02-19 20:08:00,41.5,37.3,29.93,NNW,340,0.0,0.0,85,0.00,,---,0.04,VWS V14.00,2013-02-20 04:08:00,
2013-02-19 20:13:00,41.5,37.3,29.93,NNW,340,0.0,0.0,85,0.00,,---,0.04,VWS V14.00,2013-02-20 04:13:00,
2013-02-19 20:18:00,41.4,37.5,29.93,NNW,340,0.0,0.0,86,0.00,,---,0.04,VWS V14.00,2013-02-20 04:18:00,
2013-02-19 20:23:00,41.3,37.7,29.93,NNW,340,0.0,0.0,87,0.00,,---,0.04,VWS V14.00,2013-02-20 04:23:00,
2013-02-19 20:28:00,41.2,37.6,29.93,NNW,340,0.0,0.0,87,0.00,,---,0.04,VWS V14.00,2013-02-20 04:28:00,
2013-02-19 20:33:00,41.2,37.3,29.93,NNW,340,0.0,0.0,86,0.00,,---,0.04,VWS V14.00,2013-02-20 04:33:00,
2013-02-19 20:38:00,41.3,37.7,29.94,NNW,340,0.0,0.0,87,0.00,,---,0.04,VWS V14.00,2013-02-20 04:38:00,
2013-02-19 20:43:00,41.3,37.7,29.94,NNW,340,0.0,0.0,87,0.00,,---,0.04,VWS V14.00,2013-02-20 04:43:00,
2013-02-19 20:48:00,41.3,37.7,29.94,NNW,340,0.0,0.0,87,0.00,,---,0.04,VWS V14.00,2013-02-20 04:48:00,
2013-02-19 20:53:00,41.3,37.7,29.94,NNW,340,0.0,0.0,87,0.00,,---,0.04,VWS V14.00,2013-02-20 04:53:00,
2013-02-19 20:58:00,41.3,37.7,29.95,NNW,340,0.0,0.0,87,0.00,,---,0.04,VWS V14.00,2013-02-20 04:58:00,
2013-02-19 21:00:00,41.3,37.7,29.95,NNW,340,0.0,0.0,87,0.00,,---,0.04,VWS V14.00,2013-02-20 05:00:00,
2013-02-19 21:01:00,41.3,37.7,29.95,NNW,340,0.0,0.0,87,0.00,,---,0.04,VWS V14.00,2013-02-20 05:01:00,
2013-02-19 21:06:00,41.3,37.4,29.95,NNW,340,0.0,0.0,86,0.00,,---,0.04,VWS V14.00,2013-02-20 05:06:00,
2013-02-19 21:11:00,41.3,37.4,29.95,NNW,340,0.0,0.0,86,0.00,,---,0.04,VWS V14.00,2013-02-20 05:11:00,
2013-02-19 21:16:00,41.2,37.3,29.95,NNW,340,0.0,0.0,86,0.00,,---,0.04,VWS V14.00,2013-02-20 05:16:00,
2013-02-19 21:21:00,41.1,37.5,29.96,NNW,340,0.0,0.0,87,0.00,,---,0.04,VWS V14.00,2013-02-20 05:21:00,
2013-02-19 21:26:00,41.0,37.4,29.96,NNW,340,0.0,0.0,87,0.00,,---,0.04,VWS V14.00,2013-02-20 05:26:00,
2013-02-19 21:31:00,41.0,37.4,29.96,NNW,340,0.0,0.0,87,0.00,,---,0.04,VWS V14.00,2013-02-20 05:31:00,
2013-02-19 21:36:00,41.0,37.4,29.96,NNW,340,0.0,0.0,87,0.00,,---,0.04,VWS V14.00,2013-02-20 05:36:00,
2013-02-19 21:41:00,41.0,37.4,29.97,NNW,340,0.0,0.0,87,0.00,,---,0.04,VWS V14.00,2013-02-20 05:41:00,
2013-02-19 21:46:00,40.9,37.3,29.97,NNW,340,0.0,0.0,87,0.00,,---,0.04,VWS V14.00,2013-02-20 05:46:00,
2013-02-19 21:51:00,40.9,37.6,29.97,NNW,340,0.0,0.0,88,0.00,,---,0.04,VWS V14.00,2013-02-20 05:51:00,
2013-02-19 21:56:00,40.8,37.5,29.97,NNW,340,0.0,0.0,88,0.00,,---,0.04,VWS V14.00,2013-02-20 05:56:00,
2013-02-19 22:01:00,40.8,37.5,29.97,NNW,340,0.0,0.0,88,0.00,,---,0.04,VWS V14.00,2013-02-20 06:01:00,
2013-02-19 22:06:00,40.7,37.7,29.98,NNW,340,0.0,0.0,89,0.00,,---,0.04,VWS V14.00,2013-02-20 06:06:00,
2013-02-19 22:11:00,40.7,38.0,29.98,NNW,340,0.0,0.0,90,0.00,,---,0.04,VWS V14.00,2013-02-20 06:11:00,
2013-02-19 22:16:00,40.6,38.2,29.98,NNW,340,0.0,0.0,91,0.00,,---,0.04,VWS V14.00,2013-02-20 06:16:00,
2013-02-19 22:21:00,40.6,38.2,29.98,NNW,340,0.0,0.0,91,0.00,,---,0.04,VWS V14.00,2013-02-20 06:21:00,
2013-02-19 22:26:00,40.5,38.1,29.98,NNW,340,0.0,0.0,91,0.00,,---,0.04,VWS V14.00,2013-02-20 06:26:00,
2013-02-19 22:31:00,40.2,37.8,29.98,NNW,340,0.0,0.0,91,0.00,,---,0.04,VWS V14.00,2013-02-20 06:31:00,
2013-02-19 22:36:00,39.9,37.5,29.99,NNW,340,0.0,0.0,91,0.00,,---,0.04,VWS V14.00,2013-02-20 06:36:00,
2013-02-19 22:41:00,39.8,37.7,29.99,NNW,340,0.0,0.0,92,0.00,,---,0.04,VWS V14.00,2013-02-20 06:41:00,
2013-02-19 22:46:00,39.8,37.7,29.99,NNW,340,0.0,0.0,92,0.00,,---,0.04,VWS V14.00,2013-02-20 06:46:00,
2013-02-19 22:51:00,39.8,37.7,30.00,NNW,340,0.0,0.0,92,0.00,,---,0.04,VWS V14.00,2013-02-20 06:51:00,
2013-02-19 22:56:00,39.7,37.6,30.00,NNW,340,0.0,0.0,92,0.00,,---,0.04,VWS V14.00,2013-02-20 06:56:00,
2013-02-19 23:01:00,39.7,37.6,30.00,NNW,340,0.0,0.0,92,0.00,,---,0.04,VWS V14.00,2013-02-20 07:01:00,
2013-02-19 23:06:00,39.6,37.5,30.00,NNW,340,0.0,0.0,92,0.00,,---,0.04,VWS V14.00,2013-02-20 07:06:00,
2013-02-19 23:11:00,39.6,37.5,30.00,NNW,340,0.0,0.0,92,0.00,,---,0.04,VWS V14.00,2013-02-20 07:11:00,
2013-02-19 23:16:00,39.6,37.8,30.00,NNW,340,0.0,0.0,93,0.00,,---,0.04,VWS V14.00,2013-02-20 07:16:00,
2013-02-19 23:21:00,39.6,37.8,30.00,NNW,340,0.0,0.0,93,0.00,,---,0.04,VWS V14.00,2013-02-20 07:21:00,
2013-02-19 23:26:00,39.6,37.8,30.00,NNW,340,0.0,0.0,93,0.00,,---,0.04,VWS V14.00,2013-02-20 07:26:00,
2013-02-19 23:31:00,39.5,37.7,30.00,NNW,340,0.0,0.0,93,0.00,,---,0.04,VWS V14.00,2013-02-20 07:31:00,
2013-02-19 23:36:00,39.4,37.3,30.01,NNW,340,0.0,0.0,92,0.00,,---,0.04,VWS V14.00,2013-02-20 07:36:00,
2013-02-19 23:41:00,39.2,37.1,30.01,NNW,340,0.0,0.0,92,0.00,,---,0.04,VWS V14.00,2013-02-20 07:41:00,
2013-02-19 23:46:00,39.1,37.2,30.01,NNW,340,0.0,0.0,93,0.00,,---,0.04,VWS V14.00,2013-02-20 07:46:00,
2013-02-19 23:51:00,39.0,37.2,30.01,NNW,340,0.0,0.0,93,0.00,,---,0.04,VWS V14.00,2013-02-20 07:51:00,
2013-02-19 23:56:00,38.9,37.0,30.01,NNW,340,0.0,0.0,93,0.00,,---,0.04,VWS V14.00,2013-02-20 07:56:00,